createdAt,value
2019-04-05T00:05:01.945Z,19.00
2019-04-05T00:20:09.518Z,20.03
2019-04-05T00:35:17.071Z,18.80
2019-04-05T00:50:24.612Z,18.37
2019-04-05T01:05:32.157Z,18.07
2019-04-05T01:20:42.372Z,18.70
2019-04-05T01:35:49.741Z,18.47
2019-04-05T01:50:57.115Z,18.77
2019-04-05T02:06:04.463Z,20.23
2019-04-05T02:21:11.858Z,17.50
2019-04-05T02:36:19.207Z,17.73
2019-04-05T02:51:27.271Z,25.07
2019-04-05T03:06:34.792Z,21.70
2019-04-05T03:21:46.325Z,18.30
2019-04-05T03:36:54.177Z,19.97
2019-04-05T03:52:01.805Z,19.30
2019-04-05T04:07:09.185Z,19.97
2019-04-05T04:22:30.120Z,22.70
2019-04-05T04:37:37.577Z,21.53
2019-04-05T04:52:45.154Z,18.83
2019-04-05T05:07:52.901Z,18.20
2019-04-05T05:23:00.423Z,19.90
2019-04-05T05:38:09.099Z,19.17
2019-04-05T05:53:16.496Z,18.87
2019-04-05T06:08:23.848Z,20.73
2019-04-05T06:23:33.958Z,23.30
2019-04-05T06:38:40.208Z,22.40
2019-04-05T06:53:47.576Z,20.17
2019-04-05T07:09:02.649Z,20.37
2019-04-05T07:24:10.155Z,20.63
2019-04-05T07:39:17.572Z,20.67
2019-04-05T07:54:24.965Z,20.30
2019-04-05T08:09:33.116Z,18.40
2019-04-05T08:24:40.555Z,17.47
2019-04-05T08:39:47.924Z,16.90
2019-04-05T08:54:55.329Z,16.40
2019-04-05T09:10:02.710Z,16.57
2019-04-05T09:25:10.087Z,14.70
2019-04-05T09:40:17.672Z,15.03
2019-04-05T09:55:25.051Z,12.13
2019-04-05T10:10:32.422Z,14.53
2019-04-05T10:25:39.870Z,13.60
2019-04-05T10:40:47.246Z,13.43
2019-04-05T10:55:55.451Z,13.50
2019-04-05T11:11:03.303Z,12.53
2019-04-05T11:26:10.739Z,12.47
2019-04-05T11:41:18.858Z,11.57
2019-04-05T11:56:26.250Z,12.07
2019-04-05T12:11:33.687Z,10.23
2019-04-05T12:26:42.805Z,7.33
2019-04-05T12:41:50.364Z,7.30
2019-04-05T12:57:07.809Z,9.70
2019-04-05T13:12:14.455Z,8.17
2019-04-05T13:27:21.850Z,7.53
2019-04-05T13:42:31.259Z,5.70
2019-04-05T13:57:38.449Z,6.47
2019-04-05T14:12:47.216Z,5.93
2019-04-05T14:27:54.591Z,6.63
2019-04-05T14:43:01.930Z,7.00
2019-04-05T14:58:10.575Z,6.17
2019-04-05T15:13:18.132Z,6.13
2019-04-05T15:28:25.517Z,7.23
2019-04-05T15:43:32.934Z,7.90
2019-04-05T15:58:40.333Z,9.23
2019-04-05T16:13:47.876Z,10.00
2019-04-05T16:28:55.366Z,12.20
2019-04-05T16:44:02.763Z,12.03
2019-04-05T16:59:10.441Z,10.63
2019-04-05T17:14:18.249Z,12.10
2019-04-05T17:29:25.718Z,12.17
2019-04-05T17:44:34.179Z,13.53
2019-04-05T17:59:41.812Z,15.67
2019-04-05T18:14:50.947Z,17.33
2019-04-05T18:29:58.299Z,13.57
2019-04-05T18:45:06.012Z,16.97
2019-04-05T19:00:13.392Z,14.03
2019-04-05T19:15:21.699Z,14.20
2019-04-05T20:00:50.068Z,14.83
2019-04-05T20:15:57.500Z,13.30
2019-04-05T20:31:06.154Z,13.93
2019-04-05T20:46:13.757Z,15.00
2019-04-05T21:01:21.107Z,15.63
2019-04-05T21:16:28.641Z,17.40
2019-04-05T21:34:22.391Z,16.77
2019-04-05T21:49:29.831Z,15.37
2019-04-05T22:04:37.201Z,17.67
2019-04-05T22:19:44.573Z,17.27
2019-04-05T22:34:51.952Z,17.70
2019-04-05T22:49:59.388Z,17.70
2019-04-05T23:05:07.228Z,17.77
2019-04-05T23:20:14.869Z,18.00
2019-04-05T23:35:23.234Z,18.63
2019-04-05T23:50:30.645Z,29.33
